Pagina principală
METAR-TAF:

METAR-TAF

Aeroporturi :

Nouméa La Tontouta, Noua Caledonie

Latitudine: 22-01S, longitudine: 166-13E, elevație: 16 m

Observații meteo curente

Raportul a fost făcut în urmă cu 28 de minute, la 15:30 UTC
Vânt 2 kt din direcții variabile
Temperatură 24°C
Umiditate 89%
Presiune 1010 hPa
Vizibilitate de 10 km sau mai mult
Total acoperit la o înălțime de 6800 picior

METAR: NWWW 201530Z AUTO VRB02KT 9999 OVC068 24/22 Q1010 NOSIG

Ora: 02:58 (15:58 UTC)

Prognoză

Raportul a fost făcut în urmă cu 22 ore și 58 de minute, la 17:00 UTC
Prognoză valabilă de la 18 ora 18 UTC la 19 ora 18 UTC
Vânt 2 kt din direcții variabile
Vizibilitate de 10 km sau mai mult
Nori împrăștiați la o înălțime de 3500 picior
Nori fragmentați la o înălțime de 7000 picior

TAF: NWWW 181700Z 1818/1918 VRB02KT 9999 SCT035 BKN070

Observații și prognoze meteo pentru peste 4.000 de aeroporturi (rapoarte METAR și TAF).

Stațiile disponibile sunt reprezentate pe hartă prin puncte galbene și roșii.

Țineți indicatorul mouse-ului pe punctul dorit pentru a vedea denumirea stației.

Apoi, faceți clic pentru a vedea observațiile și prognozele meteorologice.

Pentru a schimba harta: Pentru mărire, faceți clic pe butoanele verzi cu cruce neagră; pentru micșorare, pe butonul verde cu o liniuță; pentru hărți învecinate, pe săgețile verzi.


METAR-TAF: